Time;durP1;ratioP1;P1;durP2;ratioP2;P2;SDS_P1;SDS_P2;PMS_P1;PMS_P2;Temp;Humidity;BMP_temperature;BMP_pressure;BME280_temperature;BME280_humidity;BME280_pressure;Samples;Min_cycle;Max_cycle;Signal;HPM_P1;HPM_P2
2023/03/14 00:00:18;;;;;;;6.20;1.38;;;;;;;7.47;76.08;97295.78;5046313;28;20464;-46
2023/03/14 00:02:45;;;;;;;2.75;1.45;;;;;;;7.45;75.71;97298.41;5047515;28;20053;-45
2023/03/14 00:05:11;;;;;;;5.00;1.10;;;;;;;7.39;75.76;97308.91;5045515;28;20453;-47
2023/03/14 00:07:39;;;;;;;1.83;0.90;;;;;;;7.34;76.04;97315.94;5022948;28;20073;-45
2023/03/14 00:10:10;;;;;;;3.25;1.17;;;;;;;7.25;75.06;97321.38;5047925;28;20049;-46
2023/03/14 00:12:37;;;;;;;2.53;1.05;;;;;;;7.27;74.73;97329.91;5037532;28;20745;-46
2023/03/14 00:15:06;;;;;;;3.47;1.02;;;;;;;7.19;74.56;97328.44;5051228;28;20512;-46
2023/03/14 00:17:35;;;;;;;1.88;0.93;;;;;;;7.17;75.60;97340.50;5042208;28;20049;-46
2023/03/14 00:20:07;;;;;;;5.13;1.30;;;;;;;7.24;74.05;97345.47;5025016;28;20049;-45
2023/03/14 00:22:35;;;;;;;3.03;1.00;;;;;;;7.15;74.54;97337.16;5043083;28;20061;-46
2023/03/14 00:25:03;;;;;;;4.10;1.00;;;;;;;7.11;74.67;97345.88;5041166;28;20056;-46
2023/03/14 00:27:30;;;;;;;3.40;0.80;;;;;;;7.14;75.21;97353.50;5015487;28;20053;-45
2023/03/14 00:29:57;;;;;;;2.30;0.60;;;;;;;7.04;74.97;97362.38;5034185;28;20072;-44
2023/03/14 00:32:24;;;;;;;3.28;0.95;;;;;;;7.02;75.23;97352.13;5040188;28;20049;-44
2023/03/14 00:34:50;;;;;;;1.17;0.77;;;;;;;6.96;74.78;97356.66;5032606;28;20053;-46
2023/03/14 00:37:17;;;;;;;20.95;1.48;;;;;;;6.90;76.45;97353.38;5038957;28;20106;-49
2023/03/14 00:39:43;;;;;;;2.15;0.60;;;;;;;6.88;75.94;97344.84;5046627;28;20589;-46
2023/03/14 00:42:10;;;;;;;4.15;0.77;;;;;;;6.88;74.72;97365.44;5047256;28;20072;-44
2023/03/14 00:44:37;;;;;;;2.40;1.00;;;;;;;6.84;75.48;97351.00;5042150;28;20048;-44
2023/03/14 00:47:04;;;;;;;2.13;0.80;;;;;;;6.79;75.25;97365.75;5046120;28;20094;-46
2023/03/14 00:49:30;;;;;;;4.72;1.17;;;;;;;6.84;75.16;97376.72;5045254;28;20552;-44
2023/03/14 00:51:57;;;;;;;2.05;0.90;;;;;;;6.83;75.04;97377.63;5033223;28;20385;-44
2023/03/14 00:54:23;;;;;;;2.42;0.50;;;;;;;6.76;74.55;97391.56;5048891;28;20565;-47
2023/03/14 00:56:50;;;;;;;3.55;0.70;;;;;;;6.63;75.59;97381.63;5044738;28;20075;-45
2023/03/14 00:59:17;;;;;;;1.70;1.10;;;;;;;6.58;75.17;97388.63;5039834;28;20103;-44
2023/03/14 01:01:43;;;;;;;0.68;0.60;;;;;;;6.54;74.72;97403.31;5040383;28;20075;-45
2023/03/14 01:04:10;;;;;;;2.78;0.80;;;;;;;6.51;74.73;97402.53;5038570;28;20157;-44
2023/03/14 01:06:37;;;;;;;3.35;0.77;;;;;;;6.50;74.44;97406.00;5036958;28;20145;-43
2023/03/14 01:09:04;;;;;;;4.78;0.38;;;;;;;6.46;74.61;97435.28;5037260;28;20049;-45
2023/03/14 01:11:33;;;;;;;1.10;0.75;;;;;;;6.43;74.24;97442.19;5037668;28;20622;-46
2023/03/14 01:14:00;;;;;;;1.80;0.47;;;;;;;6.40;73.96;97452.56;5012603;28;20119;-47
2023/03/14 01:16:29;;;;;;;3.40;0.77;;;;;;;6.33;72.92;97456.19;5037415;28;20069;-44
2023/03/14 01:18:56;;;;;;;1.17;0.60;;;;;;;6.25;73.57;97463.28;5027657;28;20042;-43
2023/03/14 01:21:25;;;;;;;1.30;0.93;;;;;;;6.27;73.90;97457.19;5037312;28;20081;-45
2023/03/14 01:23:53;;;;;;;2.53;0.70;;;;;;;6.35;74.26;97458.72;5019154;28;20049;-45
2023/03/14 01:26:23;;;;;;;7.22;0.35;;;;;;;6.29;74.53;97467.44;5037553;28;20157;-44
2023/03/14 01:28:52;;;;;;;0.60;0.60;;;;;;;6.14;74.41;97464.38;5019326;28;20114;-46
2023/03/14 01:31:19;;;;;;;3.05;0.32;;;;;;;6.09;74.31;97473.09;5032771;28;20076;-45
2023/03/14 01:33:46;;;;;;;4.03;0.60;;;;;;;6.14;74.47;97481.53;5024919;28;20543;-45
2023/03/14 01:36:13;;;;;;;0.63;0.30;;;;;;;6.08;74.62;97485.09;5046135;28;20072;-45
2023/03/14 01:38:40;;;;;;;4.07;0.45;;;;;;;5.92;74.83;97494.91;5026535;28;20124;-44
2023/03/14 01:41:11;;;;;;;1.08;0.50;;;;;;;5.98;74.76;97493.91;5046171;28;20084;-44
2023/03/14 01:43:38;;;;;;;1.05;0.45;;;;;;;5.80;74.66;97498.63;5023149;28;20103;-44
2023/03/14 01:51:45;;;;;;;1.02;0.82;;;;;;;5.68;74.13;97511.75;5041687;28;20409;-43
2023/03/14 01:54:36;;;;;;;2.22;0.68;;;;;;;5.63;74.13;97517.84;5009318;28;20137;-44
2023/03/14 01:59:43;;;;;;;2.88;0.77;;;;;;;5.57;72.83;97537.69;5093385;27;20386;-45
2023/03/14 02:02:11;;;;;;;;;;;;;;;5.54;73.36;97564.25;5059878;28;20045;-45
2023/03/14 02:04:39;;;;;;;1.08;0.52;;;;;;;5.45;73.54;97565.34;5062363;28;19975;-43
2023/03/14 02:09:43;;;;;;;1.60;1.50;;;;;;;5.50;73.26;97588.31;5042129;27;20402;-44
2023/03/14 02:12:11;;;;;;;1.77;1.40;;;;;;;5.47;73.22;97585.84;5025351;28;20136;-44
2023/03/14 02:14:38;;;;;;;1.58;1.48;;;;;;;5.47;72.55;97602.06;5037077;28;20128;-46
2023/03/14 02:17:07;;;;;;;1.90;1.80;;;;;;;5.57;72.87;97605.28;5040970;28;20806;-44
2023/03/14 02:19:50;;;;;;;2.17;1.67;;;;;;;5.43;74.02;97613.28;5037530;28;20053;-45
2023/03/14 02:22:17;;;;;;;;;;;;;;;5.45;72.86;97620.97;5041400;28;20641;-45
2023/03/14 02:27:20;;;;;;;2.75;1.17;;;;;;;5.90;72.10;97630.25;5039396;27;20415;-45
2023/03/14 02:32:25;;;;;;;4.32;2.22;;;;;;;5.73;72.19;97652.03;5059576;28;20399;-45
2023/03/14 02:34:56;;;;;;;2.50;2.30;;;;;;;5.70;73.41;97643.53;5036136;28;20053;-43
2023/03/14 02:37:24;;;;;;;;;;;;;;;5.61;72.40;97653.13;5037236;28;20048;-44
2023/03/14 02:39:51;;;;;;;2.47;1.88;;;;;;;5.55;73.35;97665.25;5038843;28;19952;-44
2023/03/14 02:42:17;;;;;;;2.88;1.80;;;;;;;5.51;72.78;97662.75;5040999;28;20099;-45
2023/03/14 02:47:30;;;;;;;3.78;1.02;;;;;;;5.44;72.96;97681.72;5076448;27;20394;-47
2023/03/14 02:50:02;;;;;;;0.70;0.40;;;;;;;5.39;72.39;97683.53;5017846;28;20076;-43
2023/03/14 02:52:29;;;;;;;1.45;0.80;;;;;;;5.33;72.13;97692.22;5015421;28;20061;-45
2023/03/14 02:54:56;;;;;;;0.75;0.57;;;;;;;5.36;72.67;97694.72;5015850;28;20081;-43
2023/03/14 02:57:22;;;;;;;0.55;0.45;;;;;;;5.33;71.80;97699.09;5017953;28;20045;-44
2023/03/14 02:59:49;;;;;;;1.00;0.30;;;;;;;5.28;72.42;97697.44;5019355;28;20072;-43
2023/03/14 03:02:16;;;;;;;1.95;0.52;;;;;;;5.26;71.93;97698.34;5017237;28;20319;-45
2023/03/14 03:04:42;;;;;;;2.25;0.40;;;;;;;5.27;72.55;97700.06;5036921;28;20049;-44
2023/03/14 03:07:09;;;;;;;1.70;1.25;;;;;;;5.17;71.93;97711.34;5020287;28;20143;-46
2023/03/14 03:09:35;;;;;;;3.97;0.82;;;;;;;5.03;71.77;97704.75;5022815;28;20139;-44
2023/03/14 03:12:02;;;;;;;3.65;0.82;;;;;;;5.16;72.03;97707.09;5033968;28;20046;-45
2023/03/14 03:14:29;;;;;;;0.95;0.85;;;;;;;5.09;72.17;97709.78;5034140;28;20096;-45
2023/03/14 03:16:55;;;;;;;0.88;0.50;;;;;;;4.93;72.01;97713.50;5035530;28;20085;-44
2023/03/14 03:19:22;;;;;;;4.03;1.48;;;;;;;4.78;72.68;97718.00;5035997;28;20181;-45
2023/03/14 03:21:48;;;;;;;1.52;0.43;;;;;;;4.78;72.14;97727.41;5035077;28;20068;-44
2023/03/14 03:24:15;;;;;;;1.58;0.52;;;;;;;4.70;72.61;97735.25;5035945;28;20131;-44
2023/03/14 03:26:42;;;;;;;0.90;0.30;;;;;;;4.68;72.49;97742.09;5037100;28;20080;-46
2023/03/14 03:29:08;;;;;;;2.13;1.45;;;;;;;4.66;72.77;97738.72;5030033;28;20049;-44
2023/03/14 03:31:37;;;;;;;6.32;0.85;;;;;;;4.60;73.20;97753.31;5033040;28;20049;-44
2023/03/14 03:34:04;;;;;;;4.95;0.90;;;;;;;4.73;72.95;97771.94;5032397;28;20463;-47
2023/03/14 03:36:31;;;;;;;3.45;0.77;;;;;;;4.72;73.26;97775.38;5027205;28;20500;-45
2023/03/14 03:38:57;;;;;;;2.22;0.63;;;;;;;4.60;73.89;97786.66;5030680;28;20077;-46
2023/03/14 03:41:24;;;;;;;1.52;0.98;;;;;;;4.59;74.39;97795.22;5036365;28;20558;-44
2023/03/14 03:43:51;;;;;;;0.80;0.65;;;;;;;4.60;74.42;97796.91;5029916;28;20111;-47
2023/03/14 03:46:17;;;;;;;0.90;0.70;;;;;;;4.66;73.63;97815.66;5033237;28;20049;-45
2023/03/14 03:48:44;;;;;;;3.03;0.57;;;;;;;4.67;74.03;97822.47;5040354;28;20057;-45
2023/03/14 03:51:13;;;;;;;1.75;0.85;;;;;;;4.57;74.70;97822.63;5030463;28;20057;-44
2023/03/14 03:53:40;;;;;;;1.40;0.40;;;;;;;4.60;74.43;97829.41;5033122;28;20045;-45
2023/03/14 03:56:08;;;;;;;0.40;0.20;;;;;;;4.56;74.38;97836.28;5034036;28;20045;-45
2023/03/14 03:58:34;;;;;;;0.22;0.22;;;;;;;4.46;75.54;97839.88;5017378;28;20081;-46
2023/03/14 04:01:01;;;;;;;0.88;0.88;;;;;;;4.45;74.97;97853.53;5015415;28;20512;-46
2023/03/14 04:03:28;;;;;;;0.63;0.57;;;;;;;4.48;74.82;97864.59;5013853;28;20137;-44
2023/03/14 04:06:00;;;;;;;0.50;0.45;;;;;;;4.46;74.74;97870.63;5016351;28;20054;-45
2023/03/14 04:08:27;;;;;;;1.10;0.32;;;;;;;4.45;74.90;97868.91;5021351;28;20061;-44
2023/03/14 04:10:57;;;;;;;0.38;0.35;;;;;;;4.41;75.02;97888.63;5018664;28;20068;-46
2023/03/14 04:13:24;;;;;;;0.73;0.73;;;;;;;4.44;74.78;97887.72;5015753;28;20114;-46
2023/03/14 04:15:51;;;;;;;0.43;0.43;;;;;;;4.39;75.25;97894.63;5020522;28;20128;-44
2023/03/14 04:18:18;;;;;;;0.63;0.52;;;;;;;4.37;75.25;97903.19;5021851;28;20053;-44
2023/03/14 04:20:45;;;;;;;1.38;1.10;;;;;;;4.32;75.36;97904.94;5017909;28;20112;-47
2023/03/14 04:23:12;;;;;;;0.82;0.35;;;;;;;4.34;75.41;97913.47;5021846;28;20080;-45
2023/03/14 04:25:38;;;;;;;0.40;0.40;;;;;;;4.26;76.13;97909.31;5016837;28;20073;-44
2023/03/14 04:28:05;;;;;;;0.57;0.20;;;;;;;4.24;76.28;97917.88;5017355;28;20533;-46
2023/03/14 04:30:31;;;;;;;0.30;0.30;;;;;;;4.20;76.38;97925.59;5017348;28;20081;-44
2023/03/14 04:32:58;;;;;;;2.30;0.63;;;;;;;4.28;75.94;97933.19;5016806;28;20077;-44
2023/03/14 04:35:25;;;;;;;4.78;0.90;;;;;;;4.27;76.19;97937.47;5015290;28;20053;-44
2023/03/14 04:37:51;;;;;;;0.70;0.45;;;;;;;4.26;76.24;97946.03;5018300;28;20077;-44
2023/03/14 04:40:18;;;;;;;0.80;0.40;;;;;;;4.27;76.10;97952.84;5021112;28;20045;-44
2023/03/14 04:42:45;;;;;;;0.70;0.20;;;;;;;4.26;76.06;97966.53;5015078;28;20069;-44
2023/03/14 04:45:11;;;;;;;0.60;0.30;;;;;;;4.24;76.46;97974.25;5017074;28;20091;-45
2023/03/14 04:47:38;;;;;;;0.43;0.43;;;;;;;4.25;76.98;97985.31;5016248;28;20071;-43
2023/03/14 04:50:05;;;;;;;0.52;0.52;;;;;;;4.13;77.52;97985.47;5019823;28;20493;-44
2023/03/14 04:52:31;;;;;;;0.32;0.32;;;;;;;4.13;77.57;97990.59;5013961;28;20078;-45
2023/03/14 04:54:58;;;;;;;0.28;0.25;;;;;;;4.13;77.32;97991.44;5014793;28;20136;-48
2023/03/14 04:57:24;;;;;;;0.80;0.80;;;;;;;4.05;77.17;98009.44;5015517;28;20045;-45
2023/03/14 04:59:51;;;;;;;1.40;0.60;;;;;;;4.03;77.74;98024.00;5016331;28;20524;-44
2023/03/14 05:02:18;;;;;;;0.75;0.75;;;;;;;4.02;76.77;98024.81;5016105;28;20053;-43
2023/03/14 05:04:44;;;;;;;0.68;0.28;;;;;;;4.07;77.03;98037.59;5014087;28;20046;-45
2023/03/14 05:07:11;;;;;;;0.82;0.47;;;;;;;4.09;77.34;98041.84;5015910;28;20070;-44
2023/03/14 05:09:40;;;;;;;1.23;0.57;;;;;;;3.99;77.72;98047.94;5017527;28;20095;-49
2023/03/14 05:12:06;;;;;;;0.50;0.50;;;;;;;4.03;77.61;98052.16;5022999;28;20046;-44
2023/03/14 05:14:33;;;;;;;0.52;0.40;;;;;;;3.97;78.07;98063.31;5013579;28;20077;-46
2023/03/14 05:16:59;;;;;;;1.00;0.47;;;;;;;3.98;77.61;98065.00;5024781;28;20080;-44
2023/03/14 05:19:26;;;;;;;0.98;0.30;;;;;;;3.89;77.20;98075.34;5016106;28;20737;-45
2023/03/14 05:21:53;;;;;;;0.73;0.30;;;;;;;3.89;77.55;98083.03;5015592;28;20124;-45
2023/03/14 05:24:19;;;;;;;0.43;0.32;;;;;;;3.81;77.62;98085.63;5014324;28;20073;-44
2023/03/14 05:26:46;;;;;;;1.23;0.85;;;;;;;3.78;77.49;98093.31;5020291;28;20045;-49
2023/03/14 05:29:12;;;;;;;0.93;0.65;;;;;;;3.66;77.77;98103.66;5015737;28;20141;-43
2023/03/14 05:31:39;;;;;;;1.63;1.02;;;;;;;3.45;77.85;98115.72;5023388;28;20672;-47
2023/03/14 05:34:05;;;;;;;0.57;0.43;;;;;;;3.56;77.19;98126.75;5012425;28;20050;-44
2023/03/14 05:36:32;;;;;;;0.50;0.30;;;;;;;3.52;77.07;98126.75;5016818;28;20073;-44
2023/03/14 05:38:59;;;;;;;0.88;0.85;;;;;;;3.42;76.94;98141.31;5018121;28;20132;-44
2023/03/14 05:41:25;;;;;;;1.35;1.25;;;;;;;3.42;77.67;98156.69;5012821;28;20544;-44
2023/03/14 05:43:52;;;;;;;1.20;0.80;;;;;;;3.38;77.19;98163.50;5013316;28;20083;-45
2023/03/14 05:46:18;;;;;;;1.52;0.47;;;;;;;3.30;77.19;98172.91;5014712;28;20042;-44
2023/03/14 05:48:45;;;;;;;0.52;0.40;;;;;;;3.28;77.58;98183.16;5017281;28;20129;-45
2023/03/14 05:51:12;;;;;;;0.50;0.43;;;;;;;3.22;77.55;98193.44;5010052;28;20571;-46
2023/03/14 05:53:38;;;;;;;0.47;0.30;;;;;;;3.10;76.99;98198.56;5016983;28;20045;-47
2023/03/14 05:56:05;;;;;;;1.35;0.70;;;;;;;3.10;76.79;98204.53;5018433;28;20084;-45
2023/03/14 05:58:32;;;;;;;0.90;0.73;;;;;;;3.04;76.24;98215.63;5010225;28;20523;-44
2023/03/14 06:01:03;;;;;;;1.67;0.68;;;;;;;3.01;76.28;98225.03;5014413;28;20056;-46
2023/03/14 06:03:29;;;;;;;1.88;0.65;;;;;;;3.02;76.78;98230.13;5009530;28;20164;-46
2023/03/14 06:05:56;;;;;;;3.70;0.88;;;;;;;3.02;77.31;98244.63;5016178;28;20410;-46
2023/03/14 06:08:23;;;;;;;1.30;0.70;;;;;;;3.03;76.53;98249.75;5014090;28;20073;-44
2023/03/14 06:10:51;;;;;;;1.13;0.90;;;;;;;3.02;77.41;98255.72;5009073;28;20089;-44
2023/03/14 06:13:17;;;;;;;0.95;0.63;;;;;;;3.04;77.18;98260.84;5009011;28;20648;-45
2023/03/14 06:15:44;;;;;;;1.58;0.80;;;;;;;3.03;77.49;98271.91;5018294;28;20069;-44
2023/03/14 06:18:12;;;;;;;1.17;0.52;;;;;;;3.02;77.74;98286.41;5020114;28;20151;-47
2023/03/14 06:20:39;;;;;;;2.45;1.05;;;;;;;3.06;77.95;98293.22;5011546;28;20755;-45
2023/03/14 06:23:06;;;;;;;0.90;0.73;;;;;;;3.02;78.01;98296.66;5020824;28;20046;-45
2023/03/14 06:25:34;;;;;;;1.27;0.73;;;;;;;2.99;78.71;98311.97;5015917;28;20104;-44
2023/03/14 06:28:01;;;;;;;0.50;0.45;;;;;;;3.01;78.80;98330.72;5029418;28;20517;-44
2023/03/14 06:30:28;;;;;;;0.73;0.40;;;;;;;2.98;79.38;98330.75;5020119;28;20049;-43
2023/03/14 06:32:55;;;;;;;1.45;0.93;;;;;;;2.99;78.87;98342.69;5010497;28;20073;-45
2023/03/14 06:35:22;;;;;;;1.55;0.73;;;;;;;3.05;79.43;98354.63;5017728;28;20050;-44
2023/03/14 06:37:49;;;;;;;2.10;0.85;;;;;;;3.02;79.34;98372.50;5012748;28;20120;-43
2023/03/14 06:40:17;;;;;;;1.52;0.65;;;;;;;3.01;79.15;98379.31;5014523;28;20444;-43
2023/03/14 06:42:45;;;;;;;0.77;0.47;;;;;;;2.94;78.88;98391.25;5008585;28;20100;-46
2023/03/14 06:45:11;;;;;;;0.82;0.60;;;;;;;2.94;78.09;98410.88;5013120;28;20081;-44
2023/03/14 06:47:38;;;;;;;0.73;0.28;;;;;;;2.83;78.70;98424.50;5012581;28;20042;-44
2023/03/14 06:50:06;;;;;;;0.85;0.40;;;;;;;2.80;78.25;98427.03;5019881;28;20076;-45
2023/03/14 06:52:33;;;;;;;0.85;0.52;;;;;;;2.79;78.89;98437.25;5018882;28;20050;-43
2023/03/14 06:55:00;;;;;;;1.40;0.88;;;;;;;2.77;78.18;98454.31;5022942;28;20661;-45
2023/03/14 06:57:26;;;;;;;1.00;0.68;;;;;;;2.74;78.02;98465.41;5012041;28;20042;-46
2023/03/14 06:59:53;;;;;;;0.63;0.47;;;;;;;2.67;77.70;98468.78;5013725;28;20120;-45
2023/03/14 07:02:20;;;;;;;1.25;0.85;;;;;;;2.65;78.41;98475.56;5017158;28;20060;-43
2023/03/14 07:05:01;;;;;;;0.93;0.90;;;;;;;2.61;77.20;98484.06;5014253;28;20107;-44
2023/03/14 07:07:28;;;;;;;1.70;1.00;;;;;;;2.54;77.23;98499.38;5014870;28;20069;-44
2023/03/14 07:09:55;;;;;;;1.38;0.55;;;;;;;2.51;77.46;98509.59;5010545;28;20073;-45
2023/03/14 07:12:21;;;;;;;0.47;0.35;;;;;;;2.49;78.12;98521.50;5018741;28;20053;-45
2023/03/14 07:14:48;;;;;;;2.25;0.75;;;;;;;2.45;77.72;98530.00;5010289;28;20496;-46
2023/03/14 07:17:15;;;;;;;1.02;0.70;;;;;;;2.38;77.49;98531.69;5015749;28;20076;-45
2023/03/14 07:19:41;;;;;;;3.33;1.30;;;;;;;2.33;77.04;98541.00;5012011;28;20115;-45
2023/03/14 07:22:08;;;;;;;6.20;0.95;;;;;;;2.29;76.87;98545.25;5018197;28;20621;-44
2023/03/14 07:24:34;;;;;;;1.50;0.50;;;;;;;2.27;77.37;98562.25;5013339;28;20108;-44
2023/03/14 07:27:01;;;;;;;2.53;0.93;;;;;;;2.29;77.96;98570.78;5015533;28;20144;-45
2023/03/14 07:29:27;;;;;;;3.80;0.77;;;;;;;2.29;76.64;98575.03;5019638;28;20046;-45
2023/03/14 07:31:54;;;;;;;1.95;0.73;;;;;;;2.27;77.25;98582.69;5014020;28;20085;-44
2023/03/14 07:34:20;;;;;;;2.95;1.02;;;;;;;2.28;77.33;98592.09;5023347;28;20049;-46
2023/03/14 07:36:47;;;;;;;2.63;0.82;;;;;;;2.29;77.65;98601.47;5019449;28;20667;-46
2023/03/14 07:39:14;;;;;;;5.32;1.05;;;;;;;2.33;77.25;98604.03;5022688;28;20053;-43
2023/03/14 07:41:40;;;;;;;4.47;0.75;;;;;;;2.38;76.95;98615.13;5022073;28;20092;-46
2023/03/14 07:44:07;;;;;;;1.85;0.77;;;;;;;2.42;78.48;98627.97;5010848;28;20156;-44
2023/03/14 07:46:33;;;;;;;2.17;0.63;;;;;;;2.48;77.68;98633.94;5019793;28;20496;-43
2023/03/14 07:49:00;;;;;;;2.72;0.90;;;;;;;2.52;78.20;98639.09;5018583;28;20057;-45
2023/03/14 07:51:27;;;;;;;4.35;0.65;;;;;;;2.57;77.58;98652.75;5019900;28;20501;-45
2023/03/14 07:53:53;;;;;;;1.98;0.65;;;;;;;2.65;78.57;98654.53;5007897;28;20096;-44
2023/03/14 07:56:20;;;;;;;1.40;0.77;;;;;;;2.72;77.59;98661.41;5010970;28;20088;-44
2023/03/14 07:58:46;;;;;;;1.75;0.95;;;;;;;2.78;77.80;98676.78;5021339;28;20053;-44
2023/03/14 08:01:13;;;;;;;4.47;1.95;;;;;;;2.83;78.03;98685.34;5015829;28;20069;-44
2023/03/14 08:03:39;;;;;;;8.10;1.38;;;;;;;2.90;77.05;98695.63;5018977;28;20049;-45
2023/03/14 08:06:06;;;;;;;6.25;1.23;;;;;;;2.92;78.09;98704.16;5015687;28;20132;-44
2023/03/14 08:08:33;;;;;;;6.13;1.23;;;;;;;2.94;78.23;98707.59;5017563;28;20054;-45
2023/03/14 08:11:05;;;;;;;1.88;0.70;;;;;;;2.96;77.56;98716.09;5017459;28;20053;-44
2023/03/14 08:13:32;;;;;;;6.97;1.27;;;;;;;2.95;77.91;98714.41;5016174;28;21470;-44
2023/03/14 08:15:58;;;;;;;3.35;0.82;;;;;;;2.99;78.81;98731.47;5013228;28;20049;-43
2023/03/14 08:18:25;;;;;;;6.03;1.88;;;;;;;3.07;78.54;98734.06;5015146;28;20053;-43
2023/03/14 08:20:52;;;;;;;2.97;0.63;;;;;;;3.14;78.23;98745.22;5020314;28;20050;-45
2023/03/14 08:23:18;;;;;;;8.93;1.45;;;;;;;3.24;77.82;98744.41;5015483;28;20072;-46
2023/03/14 08:25:45;;;;;;;1.88;0.65;;;;;;;3.36;78.21;98760.69;5013332;28;20053;-44
2023/03/14 08:28:11;;;;;;;4.53;1.00;;;;;;;3.58;77.83;98772.78;5017049;28;20131;-44
2023/03/14 08:30:38;;;;;;;7.80;1.25;;;;;;;3.79;77.70;98771.19;5017141;28;20073;-43
2023/03/14 08:33:05;;;;;;;3.25;0.85;;;;;;;4.13;76.96;98774.69;5016760;28;20052;-43
2023/03/14 08:35:31;;;;;;;5.03;0.80;;;;;;;4.88;77.23;98780.78;5015004;28;20057;-45
2023/03/14 08:37:59;;;;;;;3.58;1.20;;;;;;;5.52;76.41;98786.72;5018586;28;20083;-44
2023/03/14 08:40:25;;;;;;;6.07;1.33;;;;;;;5.77;74.77;98788.31;5016597;28;20127;-44
2023/03/14 08:42:52;;;;;;;1.50;0.38;;;;;;;5.95;72.25;98804.56;5011683;28;20803;-45
2023/03/14 08:45:19;;;;;;;1.67;1.48;;;;;;;5.94;72.79;98808.00;5019991;28;20053;-43
2023/03/14 08:47:46;;;;;;;2.30;0.57;;;;;;;5.78;72.54;98811.44;5017306;28;20770;-45
2023/03/14 08:50:13;;;;;;;9.38;0.80;;;;;;;5.75;72.31;98828.59;5018480;28;20623;-44
2023/03/14 08:52:42;;;;;;;3.08;0.73;;;;;;;5.82;72.07;98838.00;5013143;28;20148;-44
2023/03/14 08:55:09;;;;;;;2.80;0.63;;;;;;;6.42;72.44;98847.22;5020734;28;20413;-45
2023/03/14 08:57:36;;;;;;;9.38;1.17;;;;;;;7.40;73.13;98861.13;5013959;28;20072;-48
2023/03/14 09:00:10;;;;;;;9.93;1.20;;;;;;;8.60;71.35;98874.44;5014369;28;20058;-44
2023/03/14 09:02:37;;;;;;;10.18;2.10;;;;;;;9.76;69.29;98866.59;5014595;28;20084;-45
2023/03/14 09:05:05;;;;;;;4.32;1.23;;;;;;;10.56;65.97;98882.31;5026578;28;20626;-46
2023/03/14 09:07:31;;;;;;;3.78;1.40;;;;;;;11.30;64.95;98878.06;5018622;28;20187;-47
2023/03/14 09:09:58;;;;;;;9.07;1.20;;;;;;;11.86;63.01;98882.69;5014211;28;20091;-45
2023/03/14 09:12:25;;;;;;;2.78;2.05;;;;;;;12.03;63.13;98888.25;5014797;28;20050;-46
2023/03/14 09:14:52;;;;;;;4.60;0.93;;;;;;;11.94;60.94;98897.19;5018104;28;20041;-46
2023/03/14 09:17:19;;;;;;;5.22;0.75;;;;;;;11.56;60.42;98897.25;5013498;28;20088;-50
2023/03/14 09:19:48;;;;;;;3.30;1.35;;;;;;;10.90;59.60;98907.47;5013518;28;20042;-45
2023/03/14 09:22:15;;;;;;;6.90;2.35;;;;;;;10.83;60.84;98911.09;5017789;28;20081;-44
2023/03/14 09:24:41;;;;;;;9.68;1.10;;;;;;;10.54;60.79;98919.44;5010614;28;20107;-46
2023/03/14 09:27:08;;;;;;;4.72;1.38;;;;;;;10.09;60.10;98919.44;5015081;28;20521;-45
2023/03/14 09:29:35;;;;;;;2.35;0.90;;;;;;;10.14;61.50;98928.00;5015794;28;20054;-45
2023/03/14 09:32:01;;;;;;;5.00;0.75;;;;;;;10.68;60.94;98928.69;5015184;28;20081;-44
2023/03/14 09:34:28;;;;;;;8.05;1.80;;;;;;;10.93;60.12;98936.78;5021912;28;20049;-44
2023/03/14 09:36:55;;;;;;;6.88;1.70;;;;;;;11.44;59.44;98933.88;5007978;28;20526;-47
2023/03/14 09:39:21;;;;;;;3.92;1.05;;;;;;;11.46;58.52;98942.50;5015854;28;20056;-46
2023/03/14 09:41:51;;;;;;;11.55;2.20;;;;;;;11.30;57.75;98953.22;5014671;28;20050;-45
2023/03/14 09:44:28;;;;;;;3.55;1.35;;;;;;;10.80;57.82;98959.50;5019605;28;20060;-44
2023/03/14 09:46:57;;;;;;;;;;;;;;;10.83;57.94;98957.72;5016188;28;20130;-44
2023/03/14 09:49:28;;;;;;;4.50;0.95;;;;;;;11.45;58.99;98971.88;5019400;28;19921;-44
2023/03/14 09:51:59;;;;;;;6.53;1.13;;;;;;;11.78;57.85;98969.34;5018046;28;20042;-45
2023/03/14 09:54:35;;;;;;;5.57;1.20;;;;;;;12.04;57.26;98985.16;5012035;28;20092;-46
2023/03/14 09:57:04;;;;;;;5.65;1.00;;;;;;;12.33;56.39;98987.00;5013988;28;20076;-47
2023/03/14 09:59:31;;;;;;;5.93;1.10;;;;;;;12.25;56.13;99003.66;5016997;28;20108;-46
2023/03/14 10:02:02;;;;;;;6.63;2.00;;;;;;;12.07;56.31;99011.94;5016331;28;20139;-45
2023/03/14 10:04:29;;;;;;;4.20;0.88;;;;;;;12.57;55.73;99020.16;5011762;28;20057;-45
2023/03/14 10:06:56;;;;;;;8.48;1.85;;;;;;;12.56;55.47;99024.47;5017038;28;20042;-44
2023/03/14 10:09:25;;;;;;;6.13;1.25;;;;;;;12.27;55.71;99018.34;5018243;28;20081;-45
2023/03/14 10:11:55;;;;;;;7.18;1.52;;;;;;;11.74;54.46;99030.00;5012831;28;20053;-47
2023/03/14 10:14:35;;;;;;;4.63;1.30;;;;;;;11.30;55.23;99036.16;5010640;28;20057;-44
2023/03/14 10:17:12;;;;;;;6.65;1.85;;;;;;;11.10;56.97;99041.78;4997300;28;20045;-47
2023/03/14 10:19:59;;;;;;;7.22;1.48;;;;;;;10.86;56.13;99048.31;5011434;28;20072;-45
2023/03/14 10:22:30;;;;;;;8.35;0.90;;;;;;;10.51;55.72;99056.72;5007201;28;20132;-46
2023/03/14 10:25:02;;;;;;;8.90;1.83;;;;;;;10.62;57.88;99063.44;5014187;28;20054;-46
2023/03/14 10:27:31;;;;;;;7.30;1.40;;;;;;;10.86;58.12;99076.81;5015454;28;20104;-47
2023/03/14 10:30:03;;;;;;;7.80;0.90;;;;;;;11.00;56.34;99079.97;5011390;28;20640;-44
2023/03/14 10:32:34;;;;;;;7.00;1.15;;;;;;;10.91;56.75;99080.19;5013571;28;20050;-44
2023/03/14 10:35:17;;;;;;;5.60;1.10;;;;;;;11.04;56.57;99081.63;5017801;28;20050;-45
2023/03/14 10:37:56;;;;;;;5.13;1.20;;;;;;;11.46;56.63;99085.09;5012521;28;20077;-45
2023/03/14 10:40:29;;;;;;;6.20;1.27;;;;;;;11.92;55.27;99092.72;5013773;28;20081;-47
2023/03/14 10:42:58;;;;;;;5.28;1.42;;;;;;;12.12;54.29;99096.59;5017498;28;20038;-44
2023/03/14 10:48:20;;;;;;;5.78;2.90;;;;;;;12.84;54.88;99106.84;5037611;28;20405;-46
2023/03/14 10:50:56;;;;;;;6.50;3.30;;;;;;;12.73;54.04;99104.56;5017141;28;20050;-46
2023/03/14 10:53:24;;;;;;;6.07;2.38;;;;;;;12.76;53.88;99113.19;5017127;28;20119;-44
2023/03/14 10:55:55;;;;;;;6.53;2.63;;;;;;;12.49;52.13;99113.84;5020539;28;20045;-44
2023/03/14 11:01:34;;;;;;;4.85;1.05;;;;;;;11.98;51.85;99126.28;5040152;27;20399;-43
2023/03/14 11:14:57;;;;;;;4.15;2.20;;;;;;;11.25;54.57;99153.81;5092026;27;20379;-49
2023/03/14 11:17:51;;;;;;;3.53;1.42;;;;;;;11.05;53.96;99171.44;5042999;28;20076;-45
2023/03/14 11:23:11;;;;;;;2.60;0.98;;;;;;;10.58;52.93;99165.38;5053125;28;20411;-46
2023/03/14 11:39:29;;;;;;;4.47;0.82;;;;;;;9.61;50.95;99167.63;5040498;27;20402;-48
2023/03/14 11:41:59;;;;;;;6.68;0.90;;;;;;;9.68;52.68;99180.47;4998900;28;20490;-48
2023/03/14 11:44:32;;;;;;;3.25;0.73;;;;;;;9.63;53.60;99180.53;4998586;28;20042;-49
2023/03/14 11:47:06;;;;;;;0.88;0.70;;;;;;;9.56;52.79;99189.25;5016503;28;20054;-47
2023/03/14 11:52:34;;;;;;;6.30;2.60;;;;;;;9.42;53.99;99197.16;5013501;28;20752;-48
2023/03/14 11:55:25;;;;;;;6.32;0.95;;;;;;;9.47;54.18;99201.41;5001001;28;20074;-44
2023/03/14 11:57:58;;;;;;;3.22;0.90;;;;;;;9.59;54.71;99205.56;5001795;28;20053;-51
2023/03/14 12:00:25;;;;;;;2.10;0.77;;;;;;;9.73;53.04;99210.56;4992286;28;20590;-48
2023/03/14 12:03:31;;;;;;;5.25;1.45;;;;;;;9.81;53.60;99210.47;4997310;28;20153;-49
2023/03/14 12:06:13;;;;;;;4.25;0.85;;;;;;;9.79;52.55;99211.38;4987199;28;20045;-46
2023/03/14 12:08:58;;;;;;;2.40;0.88;;;;;;;9.57;50.48;99216.81;4998253;28;20526;-45
2023/03/14 12:11:47;;;;;;;2.38;1.02;;;;;;;9.54;52.68;99227.16;4994062;28;20096;-47
2023/03/14 12:14:18;;;;;;;;;;;;;;;9.49;52.38;99228.06;4995955;28;20077;-48
2023/03/14 12:16:47;;;;;;;3.13;1.10;;;;;;;9.54;52.11;99237.50;4999528;28;19921;-48
2023/03/14 12:19:25;;;;;;;1.55;0.70;;;;;;;9.65;53.42;99230.47;5000866;28;20717;-50
2023/03/14 12:21:57;;;;;;;4.13;1.33;;;;;;;9.61;52.97;99241.75;5020505;28;20783;-49
2023/03/14 12:24:29;;;;;;;1.65;0.98;;;;;;;9.44;51.79;99226.41;4998395;28;20046;-50
2023/03/14 12:27:00;;;;;;;2.30;1.00;;;;;;;9.18;51.02;99231.00;4996166;28;20042;-47
2023/03/14 12:29:29;;;;;;;3.33;0.95;;;;;;;9.25;50.67;99231.78;4999441;28;20093;-54
2023/03/14 12:32:23;;;;;;;1.17;0.80;;;;;;;9.06;50.86;99236.28;5001618;28;20070;-46
2023/03/14 12:34:50;;;;;;;4.80;1.02;;;;;;;9.13;51.61;99237.94;4993770;28;20046;-44
2023/03/14 12:37:25;;;;;;;4.43;1.30;;;;;;;9.03;51.47;99239.75;4997326;28;20077;-49
2023/03/14 12:40:18;;;;;;;0.55;0.40;;;;;;;9.04;51.77;99238.03;4994262;28;20055;-46
2023/03/14 12:43:03;;;;;;;2.58;1.13;;;;;;;9.01;50.49;99236.31;4994024;28;20101;-47